Latest Weather Observations for Newdegate

IDW60801

Issued at 3:23 pm WST Thursday 18 August 2022 (issued every 10 minutes, with the page automatically refreshed every 10 minutes)

About weather observations | Map of weather stations | Latest weather observations for WA | Other Formats
Station Details ID: 010692 Name: NEWDEGATE RESEARCH STATION Lat: -33.11 Lon: 118.84 Height: 320.0 m
Data from the previous 72 hours. | See also: Recent months at Newdegate
Date/Time
WST
Temp
°C
App
Temp
°C
Dew
Point
°C
Rel
Hum
%
Delta-T
°C
Wind Press
QNH
hPa
Press
MSL
hPa
Rain since
9am
mm
Dir  Spd
km/h
Gust
km/h
Spd
kts
Gust
kts
18/03:00pm 13.3 8.6 6.2 62 3.4 W 20 30 11 16 1025.4 1025.7 0.0
18/02:30pm 14.0 9.5 6.8 62 3.5 WSW 20 33 11 18 1025.2 1025.5 0.0
18/02:00pm 14.6 10.4 7.4 62 3.6 W 19 26 10 14 1025.2 1025.5 0.0
18/01:30pm 13.8 9.2 6.7 62 3.5 W 20 32 11 17 1025.4 1025.7 0.0
18/01:00pm 13.1 8.4 6.0 62 3.4 W 20 32 11 17 1025.7 1025.9 0.0
18/12:30pm 12.8 8.0 5.7 62 3.4 W 20 30 11 16 1025.9 1026.1 0.0
18/12:00pm 13.4 8.8 6.3 62 3.4 W 20 35 11 19 1026.2 1026.4 0.0
18/11:30am 12.7 8.1 5.6 62 3.4 W 19 30 10 16 1026.5 1026.7 0.0
18/11:00am 12.1 7.4 5.0 62 3.3 W 19 28 10 15 1026.4 1026.6 0.0
18/10:30am 11.5 7.1 4.5 62 3.2 WSW 17 24 9 13 1026.3 1026.5 0.0
18/10:00am 10.9 6.7 3.9 62 3.1 WSW 15 19 8 10 1026.3 1026.5 0.0
18/09:30am 9.7 4.9 2.8 62 3.0 W 17 24 9 13 1026.0 1026.2 0.0
18/09:00am 8.8 4.3 1.9 62 2.9 W 15 20 8 11 1025.6 1025.8 0.2
18/08:30am 7.4 3.0 0.6 62 2.8 WSW 13 19 7 10 1025.3 1025.6 0.2
18/08:00am 6.0 1.8 -0.7 62 2.6 WSW 11 17 6 9 1025.1 1025.4 0.2
18/07:30am 4.8 0.1 -1.8 62 2.4 WSW 13 19 7 10 1024.6 1024.9 0.2
18/07:00am 3.7 -0.8 -2.9 62 2.3 WSW 11 15 6 8 1024.1 1024.4 0.2
18/06:30am 3.3 -1.6 -3.3 62 2.3 WSW 13 15 7 8 1023.7 1023.9 0.2
18/06:00am 3.0 -1.2 -3.6 62 2.3 W 9 13 5 7 1023.3 1023.5 0.2
18/05:30am 3.4 -1.1 -3.2 62 2.3 W 11 17 6 9 1022.9 1023.1 0.0
18/05:00am 3.7 -1.1 -2.9 62 2.3 WSW 13 17 7 9 1022.6 1022.8 0.0
18/04:30am 3.7 -0.8 -2.9 62 2.3 WSW 11 15 6 8 1022.3 1022.5 0.0
18/04:00am 3.8 -0.6 -2.8 62 2.3 WSW 11 15 6 8 1021.9 1022.2 0.0
18/03:30am 3.7 -0.8 -2.9 62 2.3 WSW 11 13 6 7 1022.0 1022.3 0.0
18/03:00am 4.1 -0.3 -2.5 62 2.4 WSW 11 15 6 8 1021.6 1021.9 0.0
18/02:30am 4.3 -0.1 -2.3 62 2.4 WSW 11 15 6 8 1021.1 1021.3 0.0
18/02:00am 4.6 0.3 -2.0 62 2.4 WSW 11 13 6 7 1020.5 1020.7 0.0
18/01:30am 4.5 0.1 -2.1 62 2.4 WSW 11 15 6 8 1020.5 1020.7 0.0
18/01:00am 4.8 0.5 -1.8 62 2.4 WSW 11 15 6 8 1020.1 1020.3 0.0
18/12:30am 5.6 0.2 -1.1 62 2.5 WSW 17 20 9 11 1019.7 1019.9 0.0
18/12:00am 5.9 1.0 -0.8 62 2.6 WSW 15 20 8 11 1019.7 1019.9 0.0
 
Date/Time
WST
Temp
°C
App
Temp
°C
Dew
Point
°C
Rel
Hum
%
Delta-T
°C
Wind Press
QNH
hPa
Press
MSL
hPa
Rain since
9am
mm
Dir  Spd
km/h
Gust
km/h
Spd
kts
Gust
kts
17/11:30pm 6.0 1.4 -0.7 62 2.6 WSW 13 17 7 9 1019.4 1019.6 0.0
17/11:00pm 6.0 1.8 -0.7 62 2.6 WSW 11 15 6 8 1019.2 1019.4 0.0
17/10:30pm 6.2 2.1 -0.5 62 2.6 WSW 11 15 6 8 1018.7 1019.0 0.0
17/10:00pm 6.5 2.4 -0.2 62 2.6 WSW 11 13 6 7 1017.9 1018.1 0.0
17/09:30pm 7.2 3.2 0.4 62 2.7 SW 11 15 6 8 1017.5 1017.7 0.0
17/09:00pm 7.5 3.9 0.7 62 2.8 WSW 9 13 5 7 1016.9 1017.1 0.0
17/08:30pm 8.1 3.5 1.3 62 2.8 SW 15 19 8 10 1016.4 1016.6 0.0
17/08:00pm 8.6 4.8 1.7 62 2.9 SW 11 19 6 10 1015.5 1015.7 0.0
17/07:30pm 8.7 4.9 1.8 62 2.9 SW 11 13 6 7 1014.8 1015.0 0.0
17/07:00pm 8.6 5.2 1.7 62 2.9 SW 9 11 5 6 1014.3 1014.5 0.0
17/06:30pm 8.4 5.3 1.6 62 2.8 SW 7 7 4 4 1013.8 1014.0 0.0
17/06:00pm 9.0 5.6 2.1 62 2.9 SW 9 13 5 7 1013.4 1013.6 0.0
17/05:30pm 9.5 5.5 2.6 62 3.0 SW 13 15 7 8 1013.0 1013.1 0.0
17/05:00pm 10.0 5.7 3.1 62 3.0 SW 15 24 8 13 1012.6 1012.7 0.0
17/04:30pm 10.4 5.7 3.4 62 3.1 WSW 17 22 9 12 1012.0 1012.2 0.0
17/04:00pm 10.3 4.3 3.3 62 3.1 SW 24 32 13 17 1011.2 1011.4 0.0
17/03:30pm 12.4 7.5 5.3 62 3.3 W 20 32 11 17 1010.5 1010.6 0.0
17/03:00pm 13.1 8.0 6.0 62 3.4 W 22 39 12 21 1010.5 1010.6 0.0
17/02:30pm 13.2 7.4 6.1 62 3.4 W 26 37 14 20 1010.1 1010.2 0.0
17/02:00pm 12.9 6.6 5.8 62 3.4 WNW 28 43 15 23 1009.9 1010.0 0.0
17/01:30pm 12.9 6.6 5.8 62 3.4 W 28 43 15 23 1009.5 1009.6 0.0
17/01:00pm 12.4 6.4 5.3 62 3.4 WNW 26 37 14 20 1009.5 1009.6 0.0
17/12:30pm 12.2 6.5 5.1 62 3.3 WNW 24 43 13 23 1009.9 1010.0 0.0
17/12:00pm 12.0 5.6 5.0 62 3.3 W 28 41 15 22 1009.9 1010.0 0.0
17/11:30am 11.4 4.5 4.4 62 3.2 WNW 30 43 16 23 1009.9 1010.0 0.0
17/11:00am 11.5 5.3 4.5 62 3.2 W 26 41 14 22 1010.0 1010.1 0.0
17/10:30am 11.7 6.0 4.7 62 3.2 WNW 24 39 13 21 1010.0 1010.1 0.0
17/10:00am 9.8 3.7 2.9 62 3.0 WNW 24 37 13 20 1009.8 1009.9 0.0
17/09:30am 10.5 4.5 3.5 62 3.1 WNW 24 35 13 19 1009.5 1009.6 0.0
17/09:00am 10.1 4.5 3.2 62 3.1 WNW 22 35 12 19 1009.2 1009.3 3.6
17/08:30am 8.8 3.9 1.9 62 2.9 WNW 17 28 9 15 1009.0 1009.2 3.4
17/08:00am 9.6 4.4 2.7 62 3.0 WNW 19 28 10 15 1008.3 1008.5 2.8
17/07:30am 8.7 3.2 1.8 62 2.9 WNW 20 32 11 17 1007.8 1007.9 2.8
17/07:00am 8.4 2.9 1.6 62 2.9 NW 20 30 11 16 1007.1 1007.2 2.6
17/06:30am 8.6 3.1 1.7 62 2.9 NW 20 30 11 16 1006.6 1006.7 2.6
17/06:00am 9.0 2.0 2.1 62 3.0 NW 28 48 15 26 1006.2 1006.3 2.6
17/05:55am 9.1 2.1 2.2 62 3.0 NW 28 48 15 26 1006.1 1006.2 2.6
17/05:30am 9.3 3.9 2.4 62 3.0 NW 20 30 11 16 1006.3 1006.4 2.4
17/05:00am 9.4 4.2 2.5 62 3.0 NNW 19 30 10 16 1005.6 1005.8 1.6
17/04:30am 9.4 4.0 2.5 62 3.0 NW 20 30 11 16 1005.6 1005.8 1.6
17/04:00am 9.5 5.1 2.6 62 3.0 NW 15 24 8 13 1005.5 1005.7 1.4
17/03:30am 9.5 5.5 2.6 62 3.0 NW 13 20 7 11 1005.6 1005.8 1.4
17/03:00am 9.3 4.5 2.4 62 3.0 NW 17 24 9 13 1005.7 1005.9 1.4
17/02:30am 8.9 4.4 2.0 62 2.9 NW 15 20 8 11 1005.9 1006.0 1.4
17/02:00am 9.1 5.0 2.2 62 3.0 NW 13 20 7 11 1006.2 1006.3 1.4
17/01:30am 9.3 5.2 2.4 62 3.0 NW 13 17 7 9 1006.5 1006.6 1.2
17/01:00am 9.1 4.6 2.2 62 3.0 NW 15 20 8 11 1006.6 1006.7 1.2
17/12:30am 8.7 4.5 1.8 62 2.9 NNW 13 15 7 8 1006.7 1006.8 1.2
17/12:00am 9.0 4.9 2.1 62 3.0 NW 13 19 7 10 1006.7 1006.8 1.2
 
Date/Time
WST
Temp
°C
App
Temp
°C
Dew
Point
°C
Rel
Hum
%
Delta-T
°C
Wind Press
QNH
hPa
Press
MSL
hPa
Rain since
9am
mm
Dir  Spd
km/h
Gust
km/h
Spd
kts
Gust
kts
16/11:30pm 9.2 5.1 2.3 62 3.0 NNW 13 17 7 9 1006.9 1007.0 1.2
16/11:00pm 8.9 5.1 2.0 62 2.9 NW 11 17 6 9 1007.1 1007.2 1.2
16/10:30pm 9.0 4.9 2.1 62 2.9 NW 13 17 7 9 1007.2 1007.3 1.2
16/10:00pm 8.7 4.9 1.8 62 2.9 NNW 11 13 6 7 1007.4 1007.5 1.2
16/09:30pm 9.0 5.6 2.1 62 2.9 NW 9 13 5 7 1007.5 1007.6 1.2
16/09:00pm 10.2 6.3 3.3 62 3.1 NW 13 20 7 11 1007.4 1007.5 1.2
16/08:30pm 11.0 6.8 4.0 62 3.2 NW 15 24 8 13 1007.5 1007.6 1.2
16/08:00pm 11.4 7.7 4.4 62 3.2 WNW 13 22 7 12 1007.3 1007.4 1.2
16/07:30pm 11.2 7.8 4.2 62 3.2 NW 11 15 6 8 1007.1 1007.2 1.2
16/07:00pm 12.0 7.6 5.0 62 3.3 NW 17 22 9 12 1006.7 1006.8 1.2
16/06:30pm 12.5 8.6 5.4 62 3.4 NW 15 22 8 12 1006.6 1006.7 1.2
16/06:00pm 12.7 8.9 5.6 62 3.4 NW 15 22 8 12 1005.9 1006.0 1.2
16/05:30pm 12.3 7.0 5.2 62 3.3 WNW 22 43 12 23 1005.4 1005.5 1.2
16/05:00pm 13.5 9.1 6.4 62 3.5 WNW 19 26 10 14 1005.4 1005.5 1.2
16/04:30pm 13.9 9.9 6.7 62 3.5 WNW 17 24 9 13 1005.4 1005.5 1.2
16/04:00pm 14.2 9.9 7.0 62 3.6 WNW 19 30 10 16 1004.5 1004.6 1.2
16/03:30pm 14.1 9.8 6.9 62 3.6 WNW 19 30 10 16 1004.6 1004.7 1.2
16/03:00pm 13.8 8.5 6.7 62 3.5 WNW 24 39 13 21 1004.4 1004.5 1.2
16/02:30pm 14.5 8.6 7.3 62 3.6 W 28 37 15 20 1003.9 1004.0 1.2
16/02:00pm 15.3 11.1 8.1 62 3.7 W 20 32 11 17 1003.4 1003.5 1.2
16/01:30pm 14.6 10.2 7.4 62 3.6 W 20 32 11 17 1003.2 1003.3 1.2
16/01:00pm 14.2 8.9 7.0 62 3.6 W 24 37 13 20 1003.6 1003.7 1.2
16/12:30pm 15.9 11.8 8.6 62 3.8 NW 20 35 11 19 1003.0 1003.1 0.4
16/12:00pm 16.3 12.5 9.0 62 3.8 NW 19 24 10 13 1003.4 1003.5 0.4
16/11:30am 16.1 12.2 8.8 62 3.8 NW 19 32 10 17 1003.7 1003.8 0.4
16/11:00am 15.8 12.2 8.5 62 3.8 NW 17 26 9 14 1003.8 1003.9 0.2
16/10:30am 15.8 12.2 8.5 62 3.8 NW 17 24 9 13 1004.0 1004.1 0.2
16/10:00am 15.9 12.4 8.6 62 3.8 NW 17 24 9 13 1004.0 1004.1 0.0
16/09:30am 16.0 12.1 8.7 62 3.8 NW 19 26 10 14 1004.0 1004.1 0.0
16/09:00am 16.0 11.5 8.7 62 3.8 NW 22 30 12 16 1003.8 1003.9 10.4
16/08:30am 16.4 12.0 9.1 62 3.8 NW 22 37 12 20 1003.7 1003.8 9.8
16/08:00am 16.3 10.0 9.0 62 3.8 NW 32 44 17 24 1003.2 1003.3 9.8
16/07:30am 16.5 10.6 9.2 62 3.8 NNW 30 41 16 22 1002.7 1002.7 9.4
16/07:00am 16.6 10.8 9.3 62 3.9 NNW 30 46 16 25 1002.2 1002.3 9.2
16/06:30am 16.4 11.7 9.1 62 3.8 N 24 33 13 18 1001.8 1001.9 8.8
16/06:00am 16.3 11.9 9.0 62 3.8 N 22 32 12 17 1001.4 1001.5 8.4
16/05:30am 16.2 11.0 8.9 62 3.8 N 26 35 14 19 1001.4 1001.5 8.4
16/05:00am 15.8 10.1 8.5 62 3.8 N 28 37 15 20 1001.6 1001.7 8.2
16/04:30am 15.7 10.4 8.4 62 3.8 N 26 35 14 19 1002.2 1002.3 7.4
16/04:00am 15.6 10.3 8.4 62 3.7 N 26 35 14 19 1002.4 1002.5 6.0
16/03:30am 15.4 9.3 8.2 62 3.7 N 30 37 16 20 1002.0 1002.1 5.8
16/03:00am 15.3 8.8 8.1 62 3.7 N 32 43 17 23 1002.3 1002.4 5.8
16/02:30am 15.3 10.7 8.1 62 3.7 N 22 35 12 19 1003.7 1003.8 5.4
16/02:00am 15.4 10.4 8.2 62 3.7 N 24 32 13 17 1005.2 1005.3 4.8
16/01:30am 15.4 10.0 8.2 62 3.7 N 26 35 14 19 1005.3 1005.4 4.4
16/01:00am 15.5 9.4 8.3 62 3.7 N 30 41 16 22 1005.4 1005.5 4.2
16/12:30am 15.7 9.6 8.4 62 3.8 N 30 41 16 22 1005.5 1005.7 4.2
16/12:00am 15.7 10.0 8.4 62 3.8 N 28 39 15 21 1006.1 1006.2 4.2
 
Date/Time
WST
Temp
°C
App
Temp
°C
Dew
Point
°C
Rel
Hum
%
Delta-T
°C
Wind Press
QNH
hPa
Press
MSL
hPa
Rain since
9am
mm
Dir  Spd
km/h
Gust
km/h
Spd
kts
Gust
kts
15/11:30pm 15.3 10.3 8.1 62 3.7 NNE 24 33 13 18 1005.7 1005.9 4.0
15/11:00pm 15.0 10.9 7.8 62 3.7 N 19 28 10 15 1006.7 1006.8 3.6
15/10:30pm 15.1 12.1 7.9 62 3.7 N 13 19 7 10 1007.2 1007.3 1.4
15/10:00pm 15.0 12.0 7.8 62 3.7 N 13 17 7 9 1007.6 1007.7 1.0
15/09:30pm 15.4 11.8 8.2 62 3.7 N 17 22 9 12 1008.2 1008.4 0.4
15/09:00pm 16.1 12.6 8.8 62 3.8 N 17 22 9 12 1008.2 1008.4 0.0
15/08:30pm 16.0 14.0 8.7 62 3.8 N 9 13 5 7 1008.7 1008.9 0.0
15/08:00pm 16.9 13.6 9.6 62 3.9 N 17 24 9 13 1009.3 1009.4 0.0
15/07:30pm 17.1 13.5 9.8 62 3.9 N 19 24 10 13 1009.5 1009.6 0.0
15/07:00pm 17.7 12.9 10.3 62 4.0 N 26 33 14 18 1009.6 1009.7 0.0
15/06:30pm 17.4 13.7 10.1 62 3.9 N 20 28 11 15 1009.2 1009.3 0.0
15/06:00pm 16.5 13.9 9.2 62 3.8 N 13 17 7 9 1009.2 1009.3 0.0
15/05:30pm 17.0 14.5 9.7 62 3.9 N 13 17 7 9 1008.8 1009.0 0.0
15/05:00pm 18.2 15.2 10.8 62 4.1 N 17 22 9 12 1009.0 1009.2 0.0
15/04:30pm 19.3 16.1 11.8 62 4.2 N 20 30 11 16 1009.2 1009.3 0.0
15/04:00pm 20.6 16.3 13.1 62 4.3 N 28 41 15 22 1009.3 1009.4 0.0
15/03:30pm 20.8 16.5 13.3 62 4.4 N 28 39 15 21 1009.5 1009.6 0.0

Other formats

Comma delimited format used in spreadsheet applications
http://www.bom.gov.au/fwo/IDW60801/IDW60801.94628.axf

JavaScript Object Notation format (JSON) in row-major order
http://www.bom.gov.au/fwo/IDW60801/IDW60801.94628.json

Data quality

Most of these data are generated automatically and are frequently updated. Quality checks on data are not normally performed. It is possible for incorrect values to appear. Refer to information at About Latest Weather Observations and please check the disclaimer before using these data.